Pagrindinis puslapis
METAR-TAF:

METAR-TAF

Oro uostai :

New Smyrna Beach Municipal Airport

New Smyrna Beach, Florida, Jungtinės Amerikos Valstijos

platuma: 29-03-20N, ilguma: 080-56-54W, Aukštis: 3 m

Dabartinis oras

Ataskaita buvo paskelbta 20 minutes, ne 17:47 UTC
Vėjas 8 kt iš Šiaurės/Šiaurės Rytų
Temperatūra 25°C
Drėgmė 61%
Slėgis 1014 hPa
Matomumas: 16.1 km
Išsisklaidę debesys ne aukštis 3400 ft

METAR: KEVB 171747Z 03008KT 10SM SCT034 25/17 A2993

Laikas: 14:07 (18:07 UTC)


TAF: trūkstamas

Orai ataskaitas ir orų prognozės (METAR, TAF).

turimą stotys yra geltonos ir raudonos taškus žemėlapyje.

Perkelti pele per norėdami pamatyti stoties vardą.

Tada spustelėkite, norėdami matyti oro stebėjimo ir prognozės.

Norėdami pakeisti žemėlapį: spustelėkite ant žalios mygtukų su juodo kryžiaus žemyn,; žalią mygtuką su brūkšneliu, jei norite nutolinti; arba žalių rodyklių gretimoms žemėlapius.


METAR-TAF: